createdAt,value
2017-08-04T00:00:13.521Z,0
2017-08-04T00:01:13.010Z,0
2017-08-04T00:02:12.732Z,0
2017-08-04T00:03:13.796Z,0
2017-08-04T00:04:13.831Z,0
2017-08-04T00:05:13.864Z,0
2017-08-04T00:06:13.290Z,0
2017-08-04T00:07:14.031Z,0
2017-08-04T00:08:14.060Z,0
2017-08-04T00:09:14.520Z,0
2017-08-04T00:10:14.606Z,0
2017-08-04T00:11:14.558Z,0
2017-08-04T00:12:14.926Z,0
2017-08-04T00:13:14.957Z,0
2017-08-04T00:14:14.687Z,0
2017-08-04T00:15:15.083Z,0
2017-08-04T00:16:14.756Z,0
2017-08-04T00:17:15.110Z,0
2017-08-04T00:18:14.832Z,0
2017-08-04T00:19:15.183Z,0
2017-08-04T00:20:14.905Z,0
2017-08-04T00:21:14.930Z,0
2017-08-04T00:22:14.655Z,0
2017-08-04T00:23:15.726Z,0
2017-08-04T00:24:15.755Z,0
2017-08-04T00:25:15.176Z,0
2017-08-04T00:26:15.924Z,0
2017-08-04T00:27:15.946Z,0
2017-08-04T00:28:16.221Z,0
2017-08-04T00:29:16.026Z,0
2017-08-04T00:30:16.056Z,0
2017-08-04T00:31:15.788Z,0
2017-08-04T00:32:15.515Z,0
2017-08-04T00:33:16.254Z,0
2017-08-04T00:34:16.610Z,0
2017-08-04T00:35:16.442Z,0
2017-08-04T00:36:16.373Z,0
2017-08-04T00:37:16.720Z,0
2017-08-04T00:38:16.753Z,0
2017-08-04T00:39:16.149Z,0
2017-08-04T00:40:16.605Z,0
2017-08-04T00:41:16.938Z,0
2017-08-04T00:42:16.974Z,0
2017-08-04T00:43:16.696Z,0
2017-08-04T00:44:17.046Z,0
2017-08-04T00:45:16.746Z,0
2017-08-04T00:46:17.142Z,0
2017-08-04T00:47:17.158Z,0
2017-08-04T00:48:17.188Z,0
2017-08-04T00:49:16.608Z,0
2017-08-04T00:50:17.431Z,0
2017-08-04T00:51:17.842Z,0
2017-08-04T00:52:18.182Z,0
2017-08-04T00:53:17.901Z,0
2017-08-04T00:54:17.937Z,0
2017-08-04T00:55:18.389Z,0
2017-08-04T00:56:18.330Z,0
2017-08-04T00:57:18.362Z,0
2017-08-04T00:58:18.412Z,0
2017-08-04T00:59:18.433Z,0
2017-08-04T01:00:18.157Z,0
2017-08-04T01:01:18.551Z,0
2017-08-04T01:02:18.348Z,0
2017-08-04T01:03:18.262Z,0
2017-08-04T01:04:18.985Z,0
2017-08-04T01:05:19.020Z,0
2017-08-04T01:06:19.077Z,0
2017-08-04T01:07:18.788Z,0
2017-08-04T01:08:19.123Z,0
2017-08-04T01:09:19.166Z,0
2017-08-04T01:10:18.962Z,0
2017-08-04T01:11:19.241Z,0
2017-08-04T01:12:18.947Z,0
2017-08-04T01:13:19.303Z,0
2017-08-04T01:14:19.347Z,0
2017-08-04T01:15:19.067Z,0
2017-08-04T01:16:19.094Z,0
2017-08-04T01:17:19.824Z,0
2017-08-04T01:18:19.521Z,0
2017-08-04T01:19:19.889Z,0
2017-08-04T01:20:19.619Z,0
2017-08-04T01:21:19.968Z,0
2017-08-04T01:22:20.002Z,0
2017-08-04T01:23:20.032Z,0
2017-08-04T01:24:20.067Z,0
2017-08-04T01:25:19.774Z,0
2017-08-04T01:26:20.187Z,0
2017-08-04T01:27:20.227Z,0
2017-08-04T01:28:20.259Z,0
2017-08-04T01:29:19.987Z,0
2017-08-04T01:30:20.335Z,0
2017-08-04T01:31:20.359Z,0
2017-08-04T01:32:20.419Z,0
2017-08-04T01:33:20.429Z,0
2017-08-04T01:34:20.466Z,0
2017-08-04T01:35:20.180Z,0
2017-08-04T01:36:20.553Z,0
2017-08-04T01:37:20.580Z,0
2017-08-04T01:38:20.282Z,0
2017-08-04T01:39:20.348Z,0
2017-08-04T01:40:20.352Z,0
2017-08-04T01:41:20.719Z,0
2017-08-04T01:42:20.751Z,0
2017-08-04T01:43:20.776Z,0
2017-08-04T01:44:20.519Z,0
2017-08-04T01:45:20.867Z,0
2017-08-04T01:46:20.611Z,0
2017-08-04T01:47:20.627Z,0
2017-08-04T01:48:21.345Z,0
2017-08-04T01:49:21.393Z,0
2017-08-04T01:50:21.106Z,0
2017-08-04T01:51:21.146Z,0
2017-08-04T01:52:21.153Z,0
2017-08-04T01:53:21.524Z,0
2017-08-04T01:54:21.558Z,0
2017-08-04T01:55:21.261Z,0
2017-08-04T01:56:21.636Z,0
2017-08-04T01:57:21.352Z,0
2017-08-04T01:58:21.066Z,0
2017-08-04T01:59:22.127Z,0
2017-08-04T02:00:22.195Z,0
2017-08-04T02:01:22.253Z,0
2017-08-04T02:02:21.711Z,0
2017-08-04T02:03:22.288Z,0
2017-08-04T02:04:22.302Z,0
2017-08-04T02:05:22.344Z,0
2017-08-04T02:06:22.063Z,0
2017-08-04T02:07:22.423Z,0
2017-08-04T02:08:22.444Z,0
2017-08-04T02:09:21.847Z,0
2017-08-04T02:10:22.916Z,0
2017-08-04T02:11:22.944Z,0
2017-08-04T02:12:22.983Z,0
2017-08-04T02:13:22.708Z,0
2017-08-04T02:14:23.049Z,0
2017-08-04T02:15:23.079Z,0
2017-08-04T02:16:23.126Z,0
2017-08-04T02:17:23.152Z,0
2017-08-04T02:18:23.187Z,0
2017-08-04T02:19:23.239Z,0
2017-08-04T02:20:23.259Z,0
2017-08-04T02:21:23.290Z,0
2017-08-04T02:22:23.023Z,0
2017-08-04T02:23:23.053Z,0
2017-08-04T02:24:23.399Z,0
2017-08-04T02:25:23.133Z,0
2017-08-04T02:26:23.475Z,0
2017-08-04T02:27:23.537Z,0
2017-08-04T02:28:23.541Z,0
2017-08-04T02:29:23.594Z,0
2017-08-04T02:30:23.465Z,0
2017-08-04T02:31:23.660Z,0
2017-08-04T02:32:23.681Z,0
2017-08-04T02:33:23.397Z,0
2017-08-04T02:34:23.154Z,0
2017-08-04T02:35:23.903Z,0
2017-08-04T02:36:23.626Z,0
2017-08-04T02:37:23.977Z,0
2017-08-04T02:38:23.729Z,0
2017-08-04T02:39:23.731Z,0
2017-08-04T02:40:23.767Z,0
2017-08-04T02:41:24.105Z,0
2017-08-04T02:42:23.845Z,0
2017-08-04T02:43:23.847Z,0
2017-08-04T02:44:24.223Z,0
2017-08-04T02:45:23.947Z,0
2017-08-04T02:46:23.974Z,0
2017-08-04T02:47:24.340Z,0
2017-08-04T02:48:24.354Z,0
2017-08-04T02:49:24.089Z,0
2017-08-04T02:50:24.191Z,0
2017-08-04T02:51:24.920Z,0
2017-08-04T02:52:24.953Z,0
2017-08-04T02:53:24.355Z,0
2017-08-04T02:54:25.414Z,0
2017-08-04T02:55:25.443Z,0
2017-08-04T02:56:25.186Z,0
2017-08-04T02:57:25.524Z,0
2017-08-04T02:58:25.549Z,0
2017-08-04T02:59:25.580Z,0
2017-08-04T03:00:27.071Z,0
2017-08-04T03:01:25.797Z,0
2017-08-04T03:02:25.693Z,0
2017-08-04T03:03:25.731Z,0
2017-08-04T03:04:25.759Z,0
2017-08-04T03:05:25.793Z,0
2017-08-04T03:06:25.863Z,0
2017-08-04T03:07:25.230Z,0
2017-08-04T03:08:26.291Z,0
2017-08-04T03:09:26.028Z,0
2017-08-04T03:10:26.363Z,0
2017-08-04T03:11:26.395Z,0
2017-08-04T03:12:26.433Z,0
2017-08-04T03:13:26.466Z,0
2017-08-04T03:14:26.497Z,0
2017-08-04T03:15:26.634Z,0
2017-08-04T03:16:26.575Z,0
2017-08-04T03:17:26.296Z,0
2017-08-04T03:18:26.646Z,0
2017-08-04T03:19:26.367Z,0
2017-08-04T03:20:26.815Z,5
2017-08-04T03:21:26.440Z,5
2017-08-04T03:22:26.499Z,5
2017-08-04T03:23:26.825Z,5
2017-08-04T03:24:26.551Z,5
2017-08-04T03:25:27.036Z,5
2017-08-04T03:26:26.930Z,5
2017-08-04T03:27:26.660Z,5
2017-08-04T03:28:26.994Z,5
2017-08-04T03:29:26.721Z,10
2017-08-04T03:30:27.344Z,10
2017-08-04T03:31:26.783Z,10
2017-08-04T03:32:27.140Z,10
2017-08-04T03:33:27.180Z,10
2017-08-04T03:34:27.200Z,10
2017-08-04T03:35:27.390Z,10
2017-08-04T03:36:27.271Z,10
2017-08-04T03:37:27.306Z,15
2017-08-04T03:38:27.353Z,15
2017-08-04T03:39:27.050Z,15
2017-08-04T03:40:27.428Z,20
2017-08-04T03:41:27.452Z,20
2017-08-04T03:42:27.486Z,20
2017-08-04T03:43:26.581Z,25
2017-08-04T03:44:27.331Z,25
2017-08-04T03:45:27.370Z,25
2017-08-04T03:46:27.710Z,30
2017-08-04T03:47:27.644Z,30
2017-08-04T03:48:27.461Z,30
2017-08-04T03:49:27.504Z,35
2017-08-04T03:50:27.233Z,35
2017-08-04T03:51:28.294Z,35
2017-08-04T03:52:28.333Z,35
2017-08-04T03:53:28.362Z,40
2017-08-04T03:54:28.397Z,40
2017-08-04T03:55:28.122Z,40
2017-08-04T03:56:28.465Z,45
2017-08-04T03:57:28.497Z,45
2017-08-04T03:58:28.234Z,45
2017-08-04T03:59:28.568Z,45
2017-08-04T04:00:28.443Z,45
2017-08-04T04:01:28.650Z,50
2017-08-04T04:02:28.677Z,50
2017-08-04T04:03:28.707Z,50
2017-08-04T04:04:28.415Z,55
2017-08-04T04:05:28.893Z,60
2017-08-04T04:06:28.813Z,60
2017-08-04T04:07:28.524Z,60
2017-08-04T04:08:28.881Z,60
2017-08-04T04:09:28.922Z,60
2017-08-04T04:10:29.105Z,65
2017-08-04T04:11:28.997Z,70
2017-08-04T04:12:29.022Z,70
2017-08-04T04:13:28.462Z,75
2017-08-04T04:14:29.510Z,75
2017-08-04T04:15:29.240Z,75
2017-08-04T04:16:29.287Z,75
2017-08-04T04:17:29.648Z,75
2017-08-04T04:18:29.655Z,75
2017-08-04T04:19:29.381Z,75
2017-08-04T04:20:29.735Z,75
2017-08-04T04:21:29.754Z,85
2017-08-04T04:22:29.799Z,85
2017-08-04T04:23:29.518Z,85
2017-08-04T04:24:29.863Z,90
2017-08-04T04:25:29.901Z,95
2017-08-04T04:26:29.930Z,105
2017-08-04T04:27:29.970Z,110
2017-08-04T04:28:29.386Z,110
2017-08-04T04:29:29.815Z,115
2017-08-04T04:30:30.540Z,120
2017-08-04T04:31:30.902Z,120
2017-08-04T04:32:30.622Z,120
2017-08-04T04:33:30.369Z,120
2017-08-04T04:34:31.115Z,120
2017-08-04T04:35:31.178Z,115
2017-08-04T04:36:31.185Z,115
2017-08-04T04:37:31.213Z,110
2017-08-04T04:38:31.260Z,105
2017-08-04T04:39:31.289Z,110
2017-08-04T04:40:30.995Z,115
2017-08-04T04:41:31.364Z,120
2017-08-04T04:42:31.104Z,125
2017-08-04T04:43:31.125Z,135
2017-08-04T04:44:31.847Z,160
2017-08-04T04:45:31.559Z,170
2017-08-04T04:46:32.272Z,180
2017-08-04T04:47:32.314Z,180
2017-08-04T04:48:32.041Z,175
2017-08-04T04:49:32.083Z,175
2017-08-04T04:50:32.414Z,185
2017-08-04T04:51:32.165Z,195
2017-08-04T04:52:31.544Z,190
2017-08-04T04:53:32.601Z,190
2017-08-04T04:54:32.640Z,185
2017-08-04T04:55:32.665Z,195
2017-08-04T04:56:32.698Z,200
2017-08-04T04:57:32.738Z,205
2017-08-04T04:58:32.791Z,200
2017-08-04T04:59:32.808Z,200
2017-08-04T05:00:32.854Z,220
2017-08-04T05:01:32.902Z,225
2017-08-04T05:02:32.916Z,225
2017-08-04T05:03:32.653Z,235
2017-08-04T05:04:33.017Z,235
2017-08-04T05:05:32.708Z,245
2017-08-04T05:06:33.069Z,270
2017-08-04T05:07:33.104Z,290
2017-08-04T05:08:33.142Z,300
2017-08-04T05:09:32.548Z,295
2017-08-04T05:10:32.989Z,285
2017-08-04T05:11:33.327Z,300
2017-08-04T05:12:33.375Z,315
2017-08-04T05:13:33.086Z,300
2017-08-04T05:14:33.440Z,300
2017-08-04T05:15:33.487Z,300
2017-08-04T05:16:33.506Z,285
2017-08-04T05:17:33.540Z,300
2017-08-04T05:18:33.267Z,305
2017-08-04T05:19:34.001Z,295
2017-08-04T05:20:34.028Z,300
2017-08-04T05:21:34.105Z,295
2017-08-04T05:22:33.789Z,295
2017-08-04T05:23:34.197Z,310
2017-08-04T05:24:34.547Z,315
2017-08-04T05:25:34.258Z,320
2017-08-04T05:26:34.622Z,355
2017-08-04T05:27:34.664Z,360
2017-08-04T05:28:34.073Z,360
2017-08-04T05:29:34.537Z,405
2017-08-04T05:30:34.543Z,340
2017-08-04T05:31:34.895Z,340
2017-08-04T05:32:34.667Z,360
2017-08-04T05:33:34.660Z,385
2017-08-04T05:34:35.001Z,415
2017-08-04T05:35:35.038Z,410
2017-08-04T05:36:35.086Z,335
2017-08-04T05:37:34.803Z,325
2017-08-04T05:38:35.162Z,350
2017-08-04T05:39:34.902Z,375
2017-08-04T05:40:35.225Z,385
2017-08-04T05:41:34.997Z,400
2017-08-04T05:42:34.673Z,460
2017-08-04T05:43:35.102Z,435
2017-08-04T05:44:36.160Z,490
2017-08-04T05:45:36.196Z,510
2017-08-04T05:46:36.237Z,385
2017-08-04T05:47:36.279Z,340
2017-08-04T05:48:36.321Z,345
2017-08-04T05:49:36.044Z,400
2017-08-04T05:50:36.077Z,380
2017-08-04T05:51:36.434Z,350
2017-08-04T05:52:36.468Z,340
2017-08-04T05:53:36.503Z,315
2017-08-04T05:54:36.541Z,310
2017-08-04T05:55:36.584Z,340
2017-08-04T05:56:36.313Z,365
2017-08-04T05:57:36.644Z,465
2017-08-04T05:58:36.685Z,585
2017-08-04T05:59:36.412Z,435
2017-08-04T06:00:37.138Z,345
2017-08-04T06:01:36.904Z,280
2017-08-04T06:02:36.595Z,285
2017-08-04T06:03:37.676Z,245
2017-08-04T06:04:37.732Z,255
2017-08-04T06:05:37.427Z,240
2017-08-04T06:06:37.846Z,240
2017-08-04T06:07:38.197Z,240
2017-08-04T06:08:37.908Z,235
2017-08-04T06:09:37.672Z,265
2017-08-04T06:10:38.726Z,265
2017-08-04T06:11:38.760Z,240
2017-08-04T06:12:38.805Z,255
2017-08-04T06:13:38.877Z,275
2017-08-04T06:14:38.888Z,375
2017-08-04T06:15:38.608Z,410
2017-08-04T06:16:38.618Z,540
2017-08-04T06:17:38.660Z,515
2017-08-04T06:18:39.023Z,615
2017-08-04T06:19:39.066Z,950
2017-08-04T06:20:39.111Z,570
2017-08-04T06:21:39.146Z,615
2017-08-04T06:22:38.553Z,605
2017-08-04T06:23:38.971Z,1165
2017-08-04T06:24:39.396Z,500
2017-08-04T06:25:40.454Z,1095
2017-08-04T06:26:40.501Z,1125
2017-08-04T06:27:40.529Z,675
2017-08-04T06:28:40.577Z,530
2017-08-04T06:29:40.300Z,1375
2017-08-04T06:30:40.648Z,1015
2017-08-04T06:31:40.383Z,1190
2017-08-04T06:32:40.427Z,650
2017-08-04T06:33:40.766Z,1770
2017-08-04T06:34:40.806Z,1700
2017-08-04T06:35:40.841Z,1820
2017-08-04T06:36:40.888Z,1690
2017-08-04T06:37:40.922Z,1425
2017-08-04T06:38:40.961Z,660
2017-08-04T06:39:40.996Z,530
2017-08-04T06:40:40.725Z,560
2017-08-04T06:41:41.082Z,560
2017-08-04T06:42:40.811Z,520
2017-08-04T06:43:41.150Z,505
2017-08-04T06:44:40.875Z,490
2017-08-04T06:45:40.944Z,400
2017-08-04T06:46:41.278Z,375
2017-08-04T06:47:41.332Z,320
2017-08-04T06:48:41.064Z,325
2017-08-04T06:49:41.085Z,295
2017-08-04T06:50:41.435Z,315
2017-08-04T06:51:41.486Z,305
2017-08-04T06:52:41.516Z,320
2017-08-04T06:53:40.938Z,335
2017-08-04T06:54:41.694Z,355
2017-08-04T06:55:41.725Z,345
2017-08-04T06:56:41.780Z,325
2017-08-04T06:57:41.813Z,290
2017-08-04T06:58:41.539Z,365
2017-08-04T06:59:41.898Z,430
2017-08-04T07:00:41.935Z,445
2017-08-04T07:01:41.969Z,545
2017-08-04T07:02:41.698Z,500
2017-08-04T07:03:41.719Z,600
2017-08-04T07:04:42.086Z,1595
2017-08-04T07:05:41.500Z,860
2017-08-04T07:06:42.577Z,835
2017-08-04T07:07:42.607Z,2170
2017-08-04T07:08:42.655Z,855
2017-08-04T07:09:42.378Z,1285
2017-08-04T07:10:42.730Z,1310
2017-08-04T07:11:42.772Z,1715
2017-08-04T07:12:42.810Z,1215
2017-08-04T07:13:42.845Z,565
2017-08-04T07:14:42.590Z,640
2017-08-04T07:15:42.616Z,575
2017-08-04T07:16:42.973Z,640
2017-08-04T07:17:42.702Z,625
2017-08-04T07:18:43.427Z,670
2017-08-04T07:19:43.150Z,860
2017-08-04T07:20:43.172Z,1330
2017-08-04T07:21:43.226Z,785
2017-08-04T07:22:43.965Z,585
2017-08-04T07:23:43.687Z,585
2017-08-04T07:24:43.772Z,505
2017-08-04T07:25:44.828Z,475
2017-08-04T07:26:44.869Z,480
2017-08-04T07:27:44.920Z,575
2017-08-04T07:28:44.947Z,695
2017-08-04T07:29:44.397Z,720
2017-08-04T07:30:44.546Z,720
2017-08-04T07:31:45.615Z,690
2017-08-04T07:32:45.657Z,720
2017-08-04T07:33:45.071Z,2510
2017-08-04T07:34:45.816Z,2580
2017-08-04T07:35:45.860Z,970
2017-08-04T07:36:45.886Z,1020
2017-08-04T07:37:45.314Z,1055
2017-08-04T07:38:46.076Z,1515
2017-08-04T07:39:46.450Z,1355
2017-08-04T07:40:46.468Z,1500
2017-08-04T07:41:46.499Z,2430
2017-08-04T07:42:46.533Z,2475
2017-08-04T07:43:46.267Z,2465
2017-08-04T07:44:46.322Z,1660
2017-08-04T07:45:46.035Z,1120
2017-08-04T07:46:46.484Z,1145
2017-08-04T07:47:46.847Z,2125
2017-08-04T07:48:46.565Z,2380
2017-08-04T07:49:45.967Z,2465
2017-08-04T07:50:46.417Z,2490
2017-08-04T07:51:47.482Z,940
2017-08-04T07:52:47.518Z,1285
2017-08-04T07:53:48.441Z,1810
2017-08-04T07:54:47.618Z,2305
2017-08-04T07:55:47.641Z,2310
2017-08-04T07:56:47.384Z,2400
2017-08-04T07:57:47.425Z,2570
2017-08-04T07:58:47.494Z,2725
2017-08-04T07:59:47.525Z,960
2017-08-04T08:00:47.568Z,1315
2017-08-04T08:01:47.919Z,2595
2017-08-04T08:02:47.637Z,2075
2017-08-04T08:03:48.026Z,1815
2017-08-04T08:04:48.044Z,2730
2017-08-04T08:05:48.079Z,2105
2017-08-04T08:06:47.807Z,2520
2017-08-04T08:07:48.166Z,2595
2017-08-04T08:08:47.907Z,2650
2017-08-04T08:09:48.286Z,2550
2017-08-04T08:10:48.301Z,2500
2017-08-04T08:11:48.040Z,2555
2017-08-04T08:12:48.090Z,2460
2017-08-04T08:13:48.437Z,2060
2017-08-04T08:14:48.480Z,2295
2017-08-04T08:15:48.218Z,1920
2017-08-04T08:16:48.580Z,2580
2017-08-04T08:17:48.631Z,2335
2017-08-04T08:18:48.330Z,2855
2017-08-04T08:19:48.756Z,2745
2017-08-04T08:20:48.814Z,3020
2017-08-04T08:21:49.161Z,2480
2017-08-04T08:22:48.901Z,2225
2017-08-04T08:23:48.639Z,1945
2017-08-04T08:24:49.373Z,1745
2017-08-04T08:25:49.119Z,1425
2017-08-04T08:26:49.158Z,1700
2017-08-04T08:27:49.580Z,1355
2017-08-04T08:28:50.328Z,1160
2017-08-04T08:29:50.062Z,1325
2017-08-04T08:30:50.790Z,1445
2017-08-04T08:31:50.835Z,1540
2017-08-04T08:32:50.571Z,1935
2017-08-04T08:33:50.930Z,2060
2017-08-04T08:34:50.638Z,1775
2017-08-04T08:35:50.704Z,1830
2017-08-04T08:36:51.053Z,1810
2017-08-04T08:37:51.164Z,1445
2017-08-04T08:38:50.837Z,1410
2017-08-04T08:39:50.899Z,1350
2017-08-04T08:40:51.244Z,1445
2017-08-04T08:41:50.984Z,1465
2017-08-04T08:42:51.329Z,1260
2017-08-04T08:43:51.402Z,1140
2017-08-04T08:44:51.421Z,1035
2017-08-04T08:45:51.469Z,1045
2017-08-04T08:46:51.210Z,1110
2017-08-04T08:47:51.558Z,1410
2017-08-04T08:48:51.598Z,1650
2017-08-04T08:49:51.324Z,1275
2017-08-04T08:50:52.066Z,1095
2017-08-04T08:51:52.101Z,1045
2017-08-04T08:52:51.827Z,1225
2017-08-04T08:53:52.186Z,1450
2017-08-04T08:54:51.913Z,1340
2017-08-04T08:55:52.640Z,2175
2017-08-04T08:56:52.694Z,1355
2017-08-04T08:57:52.413Z,1305
2017-08-04T08:58:52.765Z,1745
2017-08-04T08:59:52.822Z,1650
2017-08-04T09:00:52.844Z,1480
2017-08-04T09:01:52.390Z,1775
2017-08-04T09:02:53.004Z,1555
2017-08-04T09:03:53.025Z,1475
2017-08-04T09:04:52.773Z,1165
2017-08-04T09:05:53.082Z,1465
2017-08-04T09:06:52.837Z,1360
2017-08-04T09:07:52.857Z,2775
2017-08-04T09:08:53.561Z,1900
2017-08-04T09:09:53.419Z,1635
2017-08-04T09:10:53.103Z,1835
2017-08-04T09:11:53.905Z,2110
2017-08-04T09:12:53.935Z,1955
2017-08-04T09:13:53.670Z,1605
2017-08-04T09:14:53.698Z,1225
2017-08-04T09:15:53.751Z,2695
2017-08-04T09:16:54.104Z,1590
2017-08-04T09:17:54.153Z,1500
2017-08-04T09:18:53.891Z,1455
2017-08-04T09:19:53.640Z,1500
2017-08-04T09:20:54.704Z,2615
2017-08-04T09:21:54.750Z,1750
2017-08-04T09:22:54.466Z,2515
2017-08-04T09:23:54.201Z,2540
2017-08-04T09:24:55.276Z,2335
2017-08-04T09:25:54.996Z,3280
2017-08-04T09:26:55.101Z,2790
2017-08-04T09:27:54.849Z,2765
2017-08-04T09:28:55.917Z,2855
2017-08-04T09:29:55.967Z,2620
2017-08-04T09:30:56.012Z,3340
2017-08-04T09:31:56.056Z,3470
2017-08-04T09:32:55.483Z,3460
2017-08-04T09:33:56.243Z,2455
2017-08-04T09:34:56.611Z,2085
2017-08-04T09:35:56.648Z,2085
2017-08-04T09:36:56.693Z,2235
2017-08-04T09:37:56.398Z,3100
2017-08-04T09:38:56.473Z,2385
2017-08-04T09:39:56.516Z,2755
2017-08-04T09:40:56.892Z,2750
2017-08-04T09:41:56.609Z,3210
2017-08-04T09:42:56.645Z,2125
2017-08-04T09:43:57.012Z,2915
2017-08-04T09:44:57.075Z,2780
2017-08-04T09:45:56.500Z,2710
2017-08-04T09:46:56.637Z,1065
2017-08-04T09:47:57.387Z,780
2017-08-04T09:48:57.750Z,2450
2017-08-04T09:49:57.797Z,2500
2017-08-04T09:50:57.856Z,2730
2017-08-04T09:51:57.566Z,2490
2017-08-04T09:52:57.948Z,3025
2017-08-04T09:53:58.012Z,2910
2017-08-04T09:54:58.036Z,2620
2017-08-04T09:55:58.078Z,1880
2017-08-04T09:56:57.830Z,1815
2017-08-04T09:57:57.881Z,1775
2017-08-04T09:58:58.615Z,810
2017-08-04T09:59:58.659Z,2095
2017-08-04T10:00:58.088Z,1450
2017-08-04T10:01:59.130Z,2135
2017-08-04T10:02:59.491Z,2175
2017-08-04T10:03:59.218Z,2370
2017-08-04T10:04:59.279Z,2355
2017-08-04T10:05:59.713Z,2060
2017-08-04T10:07:00.053Z,2370
2017-08-04T10:07:59.798Z,2570
2017-08-04T10:09:00.163Z,2615
2017-08-04T10:10:00.213Z,2805
2017-08-04T10:11:00.262Z,3105
2017-08-04T10:12:00.307Z,1695
2017-08-04T10:13:00.349Z,1515
2017-08-04T10:14:00.407Z,2355
2017-08-04T10:15:00.135Z,1245
2017-08-04T10:16:00.515Z,2805
2017-08-04T10:17:00.233Z,1015
2017-08-04T10:18:00.966Z,835
2017-08-04T10:19:01.019Z,805
2017-08-04T10:20:01.053Z,890
2017-08-04T10:21:01.114Z,825
2017-08-04T10:22:01.157Z,2085
2017-08-04T10:23:00.612Z,980
2017-08-04T10:24:01.973Z,3000
2017-08-04T10:25:01.429Z,3325
2017-08-04T10:26:01.465Z,2455
2017-08-04T10:27:01.820Z,2100
2017-08-04T10:28:01.863Z,1420
2017-08-04T10:29:01.293Z,1770
2017-08-04T10:30:02.363Z,2190
2017-08-04T10:31:02.415Z,2230
2017-08-04T10:32:02.137Z,2165
2017-08-04T10:33:02.509Z,1075
2017-08-04T10:34:02.536Z,1900
2017-08-04T10:35:02.596Z,2310
2017-08-04T10:36:02.625Z,1300
2017-08-04T10:37:02.368Z,1395
2017-08-04T10:38:02.393Z,1560
2017-08-04T10:39:02.440Z,1445
2017-08-04T10:40:02.807Z,1525
2017-08-04T10:41:03.687Z,1250
2017-08-04T10:42:03.159Z,905
2017-08-04T10:43:02.943Z,795
2017-08-04T10:44:02.687Z,685
2017-08-04T10:45:02.719Z,1110
2017-08-04T10:46:03.142Z,1380
2017-08-04T10:47:03.552Z,1620
2017-08-04T10:48:03.563Z,1515
2017-08-04T10:49:03.586Z,965
2017-08-04T10:50:02.990Z,895
2017-08-04T10:51:04.120Z,815
2017-08-04T10:52:03.775Z,970
2017-08-04T10:53:03.884Z,685
2017-08-04T10:54:03.953Z,665
2017-08-04T10:55:04.444Z,1035
2017-08-04T10:56:04.083Z,1100
2017-08-04T10:57:04.098Z,1205
2017-08-04T10:58:04.525Z,1315
2017-08-04T10:59:03.967Z,1215
2017-08-04T11:00:04.504Z,1510
2017-08-04T11:01:04.926Z,2145
2017-08-04T11:02:05.303Z,1195
2017-08-04T11:03:05.029Z,1285
2017-08-04T11:04:05.054Z,2280
2017-08-04T11:05:05.198Z,1815
2017-08-04T11:06:05.137Z,1205
2017-08-04T11:07:05.191Z,1150
2017-08-04T11:08:05.536Z,1035
2017-08-04T11:09:05.599Z,865
2017-08-04T11:10:05.623Z,1225
2017-08-04T11:11:05.337Z,1615
2017-08-04T11:12:05.391Z,1155
2017-08-04T11:13:05.745Z,870
2017-08-04T11:14:05.475Z,860
2017-08-04T11:15:05.789Z,865
2017-08-04T11:16:05.979Z,780
2017-08-04T11:17:05.737Z,715
2017-08-04T11:18:06.845Z,680
2017-08-04T11:19:06.235Z,695
2017-08-04T11:20:07.168Z,685
2017-08-04T11:21:07.341Z,660
2017-08-04T11:22:07.378Z,680
2017-08-04T11:23:07.127Z,730
2017-08-04T11:24:07.139Z,715
2017-08-04T11:25:06.610Z,660
2017-08-04T11:26:07.228Z,655
2017-08-04T11:27:07.284Z,640
2017-08-04T11:28:07.333Z,630
2017-08-04T11:29:07.434Z,625
2017-08-04T11:30:08.168Z,635
2017-08-04T11:31:07.913Z,575
2017-08-04T11:32:08.336Z,605
2017-08-04T11:33:08.679Z,630
2017-08-04T11:34:08.413Z,630
2017-08-04T11:35:08.748Z,680
2017-08-04T11:36:08.520Z,725
2017-08-04T11:37:08.848Z,745
2017-08-04T11:38:08.577Z,720
2017-08-04T11:39:08.615Z,685
2017-08-04T11:40:08.971Z,660
2017-08-04T11:41:09.017Z,680
2017-08-04T11:42:09.047Z,640
2017-08-04T11:43:08.767Z,585
2017-08-04T11:44:09.138Z,515
2017-08-04T11:45:08.870Z,495
2017-08-04T11:46:08.964Z,485
2017-08-04T11:47:08.994Z,480
2017-08-04T11:48:09.009Z,470
2017-08-04T11:49:08.394Z,445
2017-08-04T11:50:09.547Z,425
2017-08-04T11:51:08.890Z,415
2017-08-04T11:52:09.963Z,385
2017-08-04T11:53:09.681Z,370
2017-08-04T11:54:10.048Z,350
2017-08-04T11:55:09.823Z,325
2017-08-04T11:56:09.779Z,300
2017-08-04T11:57:10.167Z,310
2017-08-04T11:58:09.887Z,335
2017-08-04T11:59:10.303Z,375
2017-08-04T12:00:10.305Z,430
2017-08-04T12:01:10.061Z,410
2017-08-04T12:02:11.427Z,420
2017-08-04T12:03:11.172Z,360
2017-08-04T12:04:11.233Z,335
2017-08-04T12:05:11.272Z,420
2017-08-04T12:06:10.981Z,460
2017-08-04T12:07:11.025Z,440
2017-08-04T12:08:11.058Z,435
2017-08-04T12:09:11.090Z,445
2017-08-04T12:10:11.529Z,410
2017-08-04T12:11:11.200Z,370
2017-08-04T12:12:11.534Z,370
2017-08-04T12:13:11.261Z,365
2017-08-04T12:14:11.368Z,425
2017-08-04T12:15:12.118Z,445
2017-08-04T12:16:12.173Z,465
2017-08-04T12:17:12.515Z,450
2017-08-04T12:18:12.241Z,385
2017-08-04T12:19:12.281Z,485
2017-08-04T12:20:13.188Z,440
2017-08-04T12:21:13.243Z,375
2017-08-04T12:22:13.258Z,325
2017-08-04T12:23:13.339Z,300
2017-08-04T12:24:13.057Z,255
2017-08-04T12:25:13.127Z,260
2017-08-04T12:26:13.123Z,355
2017-08-04T12:27:13.548Z,395
2017-08-04T12:28:12.938Z,335
2017-08-04T12:29:13.615Z,280
2017-08-04T12:30:13.388Z,260
2017-08-04T12:31:13.616Z,255
2017-08-04T12:32:13.659Z,250
2017-08-04T12:33:13.392Z,245
2017-08-04T12:34:13.730Z,260
2017-08-04T12:35:13.536Z,305
2017-08-04T12:36:13.202Z,320
2017-08-04T12:37:13.646Z,335
2017-08-04T12:38:14.412Z,350
2017-08-04T12:39:14.745Z,360
2017-08-04T12:40:14.813Z,330
2017-08-04T12:41:14.517Z,300
2017-08-04T12:42:14.550Z,310
2017-08-04T12:43:14.593Z,295
2017-08-04T12:44:14.638Z,270
2017-08-04T12:45:15.050Z,245
2017-08-04T12:46:14.786Z,255
2017-08-04T12:47:14.839Z,300
2017-08-04T12:48:15.180Z,370
2017-08-04T12:49:14.898Z,370
2017-08-04T12:50:15.254Z,335
2017-08-04T12:51:15.693Z,340
2017-08-04T12:52:15.884Z,355
2017-08-04T12:53:15.510Z,355
2017-08-04T12:54:15.112Z,380
2017-08-04T12:55:15.154Z,430
2017-08-04T12:56:14.860Z,360
2017-08-04T12:57:15.587Z,330
2017-08-04T12:58:15.329Z,405
2017-08-04T12:59:16.061Z,435
2017-08-04T13:00:16.122Z,395
2017-08-04T13:01:16.146Z,290
2017-08-04T13:02:15.957Z,275
2017-08-04T13:03:16.221Z,300
2017-08-04T13:04:15.931Z,330
2017-08-04T13:05:16.128Z,370
2017-08-04T13:06:16.025Z,410
2017-08-04T13:07:16.382Z,400
2017-08-04T13:08:16.414Z,385
2017-08-04T13:09:16.449Z,325
2017-08-04T13:10:15.882Z,270
2017-08-04T13:11:16.639Z,255
2017-08-04T13:12:16.681Z,230
2017-08-04T13:13:16.384Z,215
2017-08-04T13:14:16.485Z,205
2017-08-04T13:15:17.257Z,210
2017-08-04T13:16:17.594Z,210
2017-08-04T13:17:17.310Z,200
2017-08-04T13:18:18.049Z,195
2017-08-04T13:19:18.082Z,195
2017-08-04T13:20:18.136Z,190
2017-08-04T13:21:17.857Z,190
2017-08-04T13:22:18.215Z,190
2017-08-04T13:23:17.623Z,190
2017-08-04T13:24:18.081Z,185
2017-08-04T13:25:19.147Z,185
2017-08-04T13:26:18.870Z,185
2017-08-04T13:27:18.920Z,210
2017-08-04T13:28:18.959Z,230
2017-08-04T13:29:19.300Z,195
2017-08-04T13:30:19.493Z,185
2017-08-04T13:31:19.060Z,185
2017-08-04T13:32:19.472Z,180
2017-08-04T13:33:19.828Z,180
2017-08-04T13:34:19.562Z,175
2017-08-04T13:35:19.709Z,175
2017-08-04T13:36:19.947Z,170
2017-08-04T13:37:19.665Z,170
2017-08-04T13:38:19.065Z,170
2017-08-04T13:39:19.828Z,170
2017-08-04T13:40:20.239Z,170
2017-08-04T13:41:20.283Z,170
2017-08-04T13:42:20.329Z,175
2017-08-04T13:43:20.051Z,170
2017-08-04T13:44:19.737Z,165
2017-08-04T13:45:20.460Z,165
2017-08-04T13:46:20.195Z,185
2017-08-04T13:47:20.539Z,230
2017-08-04T13:48:19.936Z,290
2017-08-04T13:49:20.681Z,250
2017-08-04T13:50:21.036Z,240
2017-08-04T13:51:20.770Z,230
2017-08-04T13:52:20.809Z,220
2017-08-04T13:53:20.527Z,215
2017-08-04T13:54:20.957Z,220
2017-08-04T13:55:21.323Z,230